createdAt,value
2022-08-02T00:00:14.585Z,99823.28
2022-08-02T00:02:43.979Z,99821.16
2022-08-02T00:05:14.564Z,99818.19
2022-08-02T00:07:43.943Z,99824.44
2022-08-02T00:10:13.073Z,99818.94
2022-08-02T00:12:42.024Z,99818.38
2022-08-02T00:15:15.926Z,99819.19
2022-08-02T00:17:44.532Z,99815.09
2022-08-02T00:20:17.098Z,99815.56
2022-08-02T00:22:46.637Z,99812.84
2022-08-02T00:25:15.806Z,99818.22
2022-08-02T00:27:44.811Z,99820.63
2022-08-02T00:30:13.539Z,99818.97
2022-08-02T00:32:42.787Z,99819.06
2022-08-02T00:35:11.017Z,99817.66
2022-08-02T00:37:43.436Z,99824.06
2022-08-02T00:40:13.043Z,99815.94
2022-08-02T00:42:42.277Z,99818.03
2022-08-02T00:45:11.619Z,99818.28
2022-08-02T00:47:41.097Z,99834.22
2022-08-02T00:50:12.337Z,99829.31
2022-08-02T00:52:41.318Z,99836.38
2022-08-02T00:55:13.347Z,99830.94
2022-08-02T00:57:46.593Z,99834.75
2022-08-02T01:00:22.075Z,99830.94
2022-08-02T01:02:51.407Z,99831.44
2022-08-02T01:05:20.824Z,99831.44
2022-08-02T01:07:50.175Z,99839.13
2022-08-02T01:10:19.525Z,99832.63
2022-08-02T01:12:49.060Z,99828.53
2022-08-02T01:15:17.082Z,99830.28
2022-08-02T01:17:49.105Z,99841.13
2022-08-02T01:20:26.483Z,99829.06
2022-08-02T01:23:06.475Z,99833.91
2022-08-02T01:26:02.225Z,99837.09
2022-08-02T01:28:37.929Z,99832.78
2022-08-02T01:31:12.272Z,99828.31
2022-08-02T01:33:45.994Z,99829.97
2022-08-02T01:36:15.977Z,99830.47
2022-08-02T01:38:49.506Z,99818.16
2022-08-02T01:41:26.147Z,99816.38
2022-08-02T01:43:58.198Z,99817.47
2022-08-02T01:46:32.745Z,99829.94
2022-08-02T01:49:02.930Z,99830.09
2022-08-02T01:51:50.827Z,99828.53
2022-08-02T01:54:20.640Z,99835.75
2022-08-02T01:56:48.616Z,99832.56
2022-08-02T01:59:21.003Z,99827.97
2022-08-02T02:01:51.263Z,99829.44
2022-08-02T02:04:20.610Z,99837.56
2022-08-02T02:06:49.767Z,99835.00
2022-08-02T02:09:18.974Z,99833.34
2022-08-02T02:12:06.463Z,99837.63
2022-08-02T02:14:38.804Z,99837.72
2022-08-02T02:17:08.161Z,99831.81
2022-08-02T02:19:57.334Z,99837.03
2022-08-02T02:22:26.574Z,99828.38
2022-08-02T02:24:56.083Z,99828.38
2022-08-02T02:27:25.391Z,99831.78
2022-08-02T02:29:56.139Z,99846.72
2022-08-02T02:32:26.514Z,99844.25
2022-08-02T02:34:55.813Z,99843.75
2022-08-02T02:37:24.452Z,99852.72
2022-08-02T02:39:54.986Z,99858.16
2022-08-02T02:42:26.482Z,99856.47
2022-08-02T02:44:57.148Z,99856.97
2022-08-02T02:47:40.278Z,99863.34
2022-08-02T02:50:10.544Z,99860.28
2022-08-02T02:52:40.216Z,99860.78
2022-08-02T02:55:09.224Z,99861.84
2022-08-02T02:57:37.471Z,99859.72
2022-08-02T03:00:10.357Z,99866.19
2022-08-02T03:02:40.454Z,99869.03
2022-08-02T03:05:10.369Z,99871.28
2022-08-02T03:07:39.674Z,99864.78
2022-08-02T03:10:10.042Z,99872.22
2022-08-02T03:12:38.088Z,99872.00
2022-08-02T03:15:09.630Z,99879.53
2022-08-02T03:17:44.405Z,99879.88
2022-08-02T03:20:14.764Z,99879.53
2022-08-02T03:22:43.935Z,99884.13
2022-08-02T03:25:13.357Z,99889.19
2022-08-02T03:27:42.913Z,99887.22
2022-08-02T03:30:13.283Z,99892.38
2022-08-02T03:32:43.082Z,99898.25
2022-08-02T03:35:13.258Z,99896.16
2022-08-02T03:37:42.522Z,99889.91
2022-08-02T03:40:11.948Z,99897.09
2022-08-02T03:42:41.328Z,99903.81
2022-08-02T03:45:12.477Z,99908.97
2022-08-02T03:47:40.673Z,99903.56
2022-08-02T03:50:09.922Z,99905.66
2022-08-02T03:52:39.027Z,99911.06
2022-08-02T03:55:08.697Z,99911.44
2022-08-02T03:57:39.515Z,99919.41
2022-08-02T04:00:10.183Z,99910.47
2022-08-02T04:02:42.915Z,99909.75
2022-08-02T04:05:12.343Z,99911.88
2022-08-02T04:08:02.656Z,99917.06
2022-08-02T04:10:29.742Z,99918.34
2022-08-02T04:12:57.893Z,99912.47
2022-08-02T04:15:25.882Z,99916.25
2022-08-02T04:17:57.715Z,99921.66
2022-08-02T04:20:28.226Z,99932.00
2022-08-02T04:23:00.015Z,99927.75
2022-08-02T04:25:36.457Z,99928.16
2022-08-02T04:28:17.285Z,99926.94
2022-08-02T04:30:48.026Z,99923.28
2022-08-02T04:33:19.677Z,99927.06
2022-08-02T04:35:59.253Z,99940.13
2022-08-02T04:38:29.730Z,99951.06
2022-08-02T04:40:58.898Z,99949.31
2022-08-02T04:43:27.942Z,99954.25
2022-08-02T04:45:57.412Z,99947.31
2022-08-02T04:48:28.227Z,99949.78
2022-08-02T04:50:57.592Z,99952.38
2022-08-02T04:53:26.991Z,99957.66
2022-08-02T04:55:56.214Z,99957.19
2022-08-02T04:58:41.097Z,99961.31
2022-08-02T05:01:10.552Z,99967.53
2022-08-02T05:03:42.688Z,99967.53
2022-08-02T05:06:22.772Z,99971.31
2022-08-02T05:08:55.936Z,99975.44
2022-08-02T05:11:34.491Z,99976.25
2022-08-02T05:14:08.837Z,99986.38
2022-08-02T05:16:38.339Z,99977.06
2022-08-02T05:19:08.840Z,99973.19
2022-08-02T05:21:36.805Z,99967.16
2022-08-02T05:24:05.102Z,99972.69
2022-08-02T05:26:33.044Z,99981.56
2022-08-02T05:29:01.020Z,99975.53
2022-08-02T05:31:28.982Z,99982.47
2022-08-02T05:33:56.989Z,99979.56
2022-08-02T05:36:26.535Z,99988.25
2022-08-02T05:39:04.631Z,99984.00
2022-08-02T05:41:33.216Z,99978.13
2022-08-02T05:44:01.165Z,99983.31
2022-08-02T05:46:29.192Z,99981.19
2022-08-02T05:48:57.255Z,99984.72
2022-08-02T05:51:35.341Z,99989.06
2022-08-02T05:54:06.572Z,99992.63
2022-08-02T05:56:36.383Z,99989.66
2022-08-02T05:59:05.281Z,99993.88
2022-08-02T06:01:36.710Z,100000.22
2022-08-02T06:04:07.937Z,100000.38
2022-08-02T06:06:37.551Z,99998.47
2022-08-02T06:09:07.372Z,100005.09
2022-08-02T06:11:37.815Z,100003.31
2022-08-02T06:14:06.572Z,99998.00
2022-08-02T06:16:37.681Z,99997.03
2022-08-02T06:19:10.561Z,99994.31
2022-08-02T06:22:32.483Z,99993.81
2022-08-02T06:24:28.438Z,99999.84
2022-08-02T06:26:57.483Z,99998.31
2022-08-02T06:29:25.517Z,99993.22
2022-08-02T06:31:54.090Z,99998.50
2022-08-02T06:34:22.077Z,100008.97
2022-08-02T06:36:53.364Z,100007.75
2022-08-02T06:39:23.852Z,100005.69
2022-08-02T06:41:51.926Z,100007.72
2022-08-02T06:44:45.922Z,100006.75
2022-08-02T06:47:11.764Z,100012.53
2022-08-02T06:49:52.920Z,100015.31
2022-08-02T06:52:28.410Z,100020.84
2022-08-02T06:54:58.173Z,100025.78
2022-08-02T06:57:26.175Z,100025.28
2022-08-02T06:59:54.156Z,100017.25
2022-08-02T07:02:24.022Z,100014.03
2022-08-02T07:04:52.011Z,100021.44
2022-08-02T07:07:20.049Z,100021.84
2022-08-02T07:09:56.346Z,100014.63
2022-08-02T07:12:30.142Z,100014.94
2022-08-02T07:14:59.453Z,100012.00
2022-08-02T07:17:27.715Z,100019.63
2022-08-02T07:19:55.726Z,100013.16
2022-08-02T07:22:24.527Z,100016.41
2022-08-02T07:24:54.137Z,100025.13
2022-08-02T07:27:22.118Z,100019.50
2022-08-02T07:29:50.065Z,100020.06
2022-08-02T07:32:18.106Z,100019.00
2022-08-02T07:34:50.772Z,100018.75
2022-08-02T07:37:54.267Z,100022.03
2022-08-02T07:40:13.842Z,100018.28
2022-08-02T07:42:43.690Z,100021.53
2022-08-02T07:45:12.473Z,100020.50
2022-08-02T07:47:40.630Z,100013.97
2022-08-02T07:50:09.827Z,100024.34
2022-08-02T07:52:37.828Z,100010.22
2022-08-02T07:55:06.501Z,100020.56
2022-08-02T07:57:35.926Z,100027.41
2022-08-02T08:00:04.060Z,100022.53
2022-08-02T08:02:32.081Z,100026.09
2022-08-02T08:05:00.111Z,100020.16
2022-08-02T08:07:28.104Z,100018.25
2022-08-02T08:09:56.530Z,100009.88
2022-08-02T08:12:24.759Z,100016.94
2022-08-02T08:14:54.194Z,100017.50
2022-08-02T08:17:22.208Z,100020.22
2022-08-02T08:19:52.542Z,100020.78
2022-08-02T08:22:21.120Z,100018.91
2022-08-02T08:24:49.208Z,100018.63
2022-08-02T08:27:17.488Z,100023.03
2022-08-02T08:29:45.828Z,100020.84
2022-08-02T08:32:17.486Z,100023.34
2022-08-02T08:34:46.461Z,100024.16
2022-08-02T08:37:17.604Z,100020.38
2022-08-02T08:39:56.688Z,100022.81
2022-08-02T08:42:27.113Z,100017.41
2022-08-02T08:44:56.150Z,100018.22
2022-08-02T08:47:25.941Z,100016.06
2022-08-02T08:49:53.967Z,100018.56
2022-08-02T08:52:21.875Z,100006.88
2022-08-02T08:54:50.052Z,100013.94
2022-08-02T08:57:19.680Z,100015.56
2022-08-02T08:59:47.671Z,100018.28
2022-08-02T09:02:19.585Z,100018.88
2022-08-02T09:04:54.880Z,100020.50
2022-08-02T09:07:23.378Z,100021.34
2022-08-02T09:09:51.394Z,100020.03
2022-08-02T09:12:22.238Z,100020.03
2022-08-02T09:14:50.675Z,100016.22
2022-08-02T09:17:18.933Z,100009.69
2022-08-02T09:19:51.907Z,100015.72
2022-08-02T09:22:19.908Z,100011.09
2022-08-02T09:24:50.090Z,100015.47
2022-08-02T09:27:18.843Z,100012.75
2022-08-02T09:30:11.623Z,100011.66
2022-08-02T09:32:50.968Z,100009.78
2022-08-02T09:36:07.237Z,100006.00
2022-08-02T09:38:22.645Z,100001.63
2022-08-02T09:40:53.949Z,100002.44
2022-08-02T09:43:21.982Z,100003.81
2022-08-02T09:45:50.003Z,100004.69
2022-08-02T09:48:17.961Z,99992.72
2022-08-02T09:50:47.437Z,100000.66
2022-08-02T09:53:15.755Z,99992.50
2022-08-02T09:55:43.772Z,99997.94
2022-08-02T09:58:19.180Z,99992.25
2022-08-02T10:00:55.384Z,99992.81
2022-08-02T10:03:25.325Z,99994.72
2022-08-02T10:06:04.845Z,99983.56
2022-08-02T10:08:33.804Z,99991.50
2022-08-02T10:11:02.241Z,99984.97
2022-08-02T10:13:31.332Z,99982.25
2022-08-02T10:15:59.500Z,99973.03
2022-08-02T10:18:45.367Z,99980.09
2022-08-02T10:21:17.035Z,99980.09
2022-08-02T10:23:45.979Z,99966.28
2022-08-02T10:26:18.601Z,99967.09
2022-08-02T10:28:47.925Z,99961.38
2022-08-02T10:31:16.904Z,99961.16
2022-08-02T10:33:49.869Z,99960.34
2022-08-02T10:36:19.635Z,99956.53
2022-08-02T10:38:47.622Z,99958.19
2022-08-02T10:41:15.786Z,99953.56
2022-08-02T10:43:45.993Z,99954.38
2022-08-02T10:46:33.503Z,99964.44
2022-08-02T10:52:15.409Z,99963.34
2022-08-02T10:54:44.587Z,99956.00
2022-08-02T10:57:17.222Z,99962.84
2022-08-02T10:59:45.529Z,99961.78
2022-08-02T11:02:13.847Z,99966.94
2022-08-02T11:05:10.980Z,99958.78
2022-08-02T11:07:41.417Z,99946.88
2022-08-02T11:10:35.299Z,99953.94
2022-08-02T11:13:05.606Z,99957.47
2022-08-02T11:15:52.888Z,99938.19
2022-08-02T11:18:21.007Z,99937.38
2022-08-02T11:20:49.008Z,99941.47
2022-08-02T11:23:44.836Z,99936.84
2022-08-02T11:26:45.442Z,99943.13
2022-08-02T11:29:15.868Z,99943.13
2022-08-02T11:31:44.869Z,99930.91
2022-08-02T11:34:37.712Z,99932.81
2022-08-02T11:37:00.897Z,99937.97
2022-08-02T11:39:30.292Z,99932.53
2022-08-02T11:41:59.366Z,99930.66
2022-08-02T11:44:27.637Z,99933.38
2022-08-02T11:46:56.771Z,99929.56
2022-08-02T11:49:25.003Z,99931.19
2022-08-02T11:52:05.427Z,99929.34
2022-08-02T11:54:36.512Z,99923.91
2022-08-02T11:57:19.317Z,99922.00
2022-08-02T11:59:48.567Z,99922.81
2022-08-02T12:02:16.703Z,99929.34
2022-08-02T12:04:44.706Z,99928.00
2022-08-02T12:07:12.825Z,99926.09
2022-08-02T12:09:44.334Z,99930.44
2022-08-02T12:12:12.664Z,99924.75
2022-08-02T12:14:43.907Z,99930.19
2022-08-02T12:17:29.356Z,99921.75
2022-08-02T12:19:57.721Z,99919.06
2022-08-02T12:22:27.219Z,99909.84
2022-08-02T12:24:57.845Z,99915.81
2022-08-02T12:27:32.975Z,99907.94
2022-08-02T12:30:05.836Z,99902.50
2022-08-02T12:32:33.998Z,99897.88
2022-08-02T12:35:03.499Z,99901.16
2022-08-02T12:37:31.507Z,99906.59
2022-08-02T12:40:00.882Z,99891.91
2022-08-02T12:42:28.945Z,99906.06
2022-08-02T12:44:58.790Z,99897.91
2022-08-02T12:47:31.269Z,99905.25
2022-08-02T12:50:13.959Z,99900.06
2022-08-02T12:52:42.022Z,99896.53
2022-08-02T12:55:24.251Z,99896.53
2022-08-02T12:57:53.713Z,99893.56
2022-08-02T13:00:26.107Z,99887.03
2022-08-02T13:02:54.097Z,99896.28
2022-08-02T13:05:22.163Z,99897.09
2022-08-02T13:07:50.143Z,99883.22
2022-08-02T13:10:18.499Z,99887.59
2022-08-02T13:12:48.084Z,99883.78
2022-08-02T13:15:49.149Z,99889.00
2022-08-02T13:18:04.201Z,99887.09
2022-08-02T13:20:32.285Z,99891.19
2022-08-02T13:23:04.120Z,99888.72
2022-08-02T13:25:32.356Z,99885.75
2022-08-02T13:28:04.023Z,99882.22
2022-08-02T13:30:32.026Z,99893.63
2022-08-02T13:33:01.260Z,99877.84
2022-08-02T13:35:29.541Z,99885.47
2022-08-02T13:37:57.507Z,99886.06
2022-08-02T13:40:25.735Z,99885.22
2022-08-02T13:42:53.761Z,99880.63
2022-08-02T13:45:23.140Z,99880.63
2022-08-02T13:48:04.609Z,99884.41
2022-08-02T13:50:33.709Z,99866.44
2022-08-02T13:53:01.729Z,99877.91
2022-08-02T13:55:29.720Z,99864.31
2022-08-02T13:57:57.761Z,99865.97
2022-08-02T14:00:34.768Z,99867.59
2022-08-02T14:03:04.031Z,99866.50
2022-08-02T14:05:47.724Z,99871.41
2022-08-02T14:08:17.624Z,99868.16
2022-08-02T14:10:46.143Z,99866.25
2022-08-02T14:13:14.214Z,99866.00
2022-08-02T14:15:44.036Z,99863.28
2022-08-02T14:18:12.041Z,99867.63
2022-08-02T14:20:40.015Z,99868.47
2022-08-02T14:23:08.047Z,99866.53
2022-08-02T14:25:36.045Z,99869.84
2022-08-02T14:28:04.222Z,99858.97
2022-08-02T14:30:32.278Z,99866.31
2022-08-02T14:33:01.670Z,99866.31
2022-08-02T14:35:29.685Z,99866.88
2022-08-02T14:37:57.779Z,99873.13
2022-08-02T14:40:31.417Z,99861.44
2022-08-02T14:43:00.458Z,99864.69
2022-08-02T14:45:40.231Z,99866.59
2022-08-02T14:48:11.276Z,99870.13
2022-08-02T14:50:39.246Z,99858.44
2022-08-02T14:53:12.328Z,99863.88
2022-08-02T14:55:41.597Z,99863.88
2022-08-02T14:58:09.811Z,99858.44
2022-08-02T15:00:40.820Z,99853.00
2022-08-02T15:03:11.047Z,99855.72
2022-08-02T15:05:39.127Z,99861.16
2022-08-02T15:08:07.483Z,99860.91
2022-08-02T15:10:35.441Z,99864.19
2022-08-02T15:13:03.419Z,99864.19
2022-08-02T15:15:31.462Z,99860.38
2022-08-02T15:18:00.117Z,99855.75
2022-08-02T15:20:29.822Z,99865.56
2022-08-02T15:23:00.794Z,99871.00
2022-08-02T15:25:28.756Z,99867.19
2022-08-02T15:27:56.790Z,99868.28
2022-08-02T15:30:24.812Z,99866.38
2022-08-02T15:32:53.847Z,99865.28
2022-08-02T15:35:21.997Z,99860.66
2022-08-02T15:37:51.371Z,99864.22
2022-08-02T15:40:19.350Z,99861.22
2022-08-02T15:42:47.409Z,99856.88
2022-08-02T15:45:15.885Z,99869.38
2022-08-02T15:47:50.489Z,99863.94
2022-08-02T15:50:18.902Z,99858.50
2022-08-02T15:52:46.921Z,99863.13
2022-08-02T15:55:16.309Z,99857.41
2022-08-02T15:57:44.233Z,99859.31
2022-08-02T16:00:17.883Z,99860.13
2022-08-02T16:02:47.902Z,99853.88
2022-08-02T16:05:18.030Z,99854.69
2022-08-02T16:07:46.484Z,99861.78
2022-08-02T16:10:14.539Z,99856.34
2022-08-02T16:12:43.883Z,99854.44
2022-08-02T16:15:12.665Z,99855.25
2022-08-02T16:17:48.779Z,99851.47
2022-08-02T16:20:22.055Z,99857.97
2022-08-02T16:22:50.055Z,99860.44
2022-08-02T16:25:18.083Z,99860.44
2022-08-02T16:28:06.109Z,99865.09
2022-08-02T16:30:35.657Z,99861.25
2022-08-02T16:33:03.643Z,99862.88
2022-08-02T16:35:31.619Z,99857.44
2022-08-02T16:37:59.597Z,99863.75
2022-08-02T16:40:27.611Z,99862.88
2022-08-02T16:42:57.020Z,99874.63
2022-08-02T16:45:24.987Z,99875.44
2022-08-02T16:47:56.130Z,99873.78
2022-08-02T16:50:28.985Z,99880.31
2022-08-02T16:52:58.101Z,99881.13
2022-08-02T16:55:30.512Z,99877.59
2022-08-02T16:58:00.535Z,99880.06
2022-08-02T17:00:29.282Z,99879.22
2022-08-02T17:02:59.617Z,99881.94
2022-08-02T17:05:29.893Z,99881.94
2022-08-02T17:08:16.893Z,99880.88
2022-08-02T17:10:45.448Z,99880.06
2022-08-02T17:13:14.865Z,99882.78
2022-08-02T17:16:01.720Z,99887.13
2022-08-02T17:18:30.970Z,99887.38
2022-08-02T17:20:59.068Z,99897.22
2022-08-02T17:24:05.400Z,99893.41
2022-08-02T17:26:15.013Z,99891.47
2022-08-02T17:29:16.204Z,99891.25
2022-08-02T17:31:42.472Z,99889.09
2022-08-02T17:34:27.083Z,99891.81
2022-08-02T17:36:56.662Z,99892.88
2022-08-02T17:39:24.637Z,99895.34
2022-08-02T17:42:02.838Z,99887.41
2022-08-02T17:44:37.402Z,99890.16
2022-08-02T17:47:11.589Z,99890.16
2022-08-02T17:49:44.186Z,99889.34
2022-08-02T17:52:51.812Z,99898.31
2022-08-02T17:55:03.986Z,99901.88
2022-08-02T17:57:57.115Z,99899.97
2022-08-02T18:00:21.462Z,99905.41
2022-08-02T18:02:54.994Z,99906.22
2022-08-02T18:05:39.397Z,99906.22
2022-08-02T18:08:09.995Z,99910.31
2022-08-02T18:10:39.346Z,99902.16
2022-08-02T18:13:07.716Z,99903.78
2022-08-02T18:15:37.185Z,99907.31
2022-08-02T18:18:05.420Z,99901.06
2022-08-02T18:20:34.414Z,99903.53
2022-08-02T18:23:02.400Z,99908.16
2022-08-02T18:25:37.785Z,99917.16
2022-08-02T18:28:12.662Z,99920.69
2022-08-02T18:30:42.378Z,99923.16
2022-08-02T18:33:56.052Z,99914.16
2022-08-02T18:35:58.431Z,99920.44
2022-08-02T18:38:28.400Z,99920.16
2022-08-02T18:40:58.773Z,99921.25
2022-08-02T18:43:29.555Z,99919.09
2022-08-02T18:46:07.484Z,99934.34
2022-08-02T18:48:47.064Z,99921.81
2022-08-02T18:51:18.612Z,99933.53
2022-08-02T18:53:48.903Z,99939.78
2022-08-02T18:56:20.327Z,99939.78
2022-08-02T18:58:52.693Z,99930.50
2022-08-02T19:01:32.529Z,99936.81
2022-08-02T19:04:03.126Z,99934.91
2022-08-02T19:06:31.297Z,99936.81
2022-08-02T19:09:06.085Z,99943.06
2022-08-02T19:11:47.185Z,99955.59
2022-08-02T19:14:24.106Z,99942.25
2022-08-02T19:16:58.125Z,99948.50
2022-08-02T19:19:29.124Z,99953.69
2022-08-02T19:22:15.940Z,99951.22
2022-08-02T19:24:51.674Z,99948.50
2022-08-02T19:27:25.821Z,99956.69
2022-08-02T19:30:08.725Z,99956.69
2022-08-02T19:32:41.708Z,99968.13
2022-08-02T19:35:29.629Z,99969.75
2022-08-02T19:38:07.140Z,99969.75
2022-08-02T19:40:35.270Z,99969.75
2022-08-02T19:44:26.590Z,99968.94
2022-08-02T19:45:51.725Z,99967.81
2022-08-02T19:48:24.581Z,99969.72
2022-08-02T19:50:56.625Z,99965.88
2022-08-02T19:53:48.450Z,99977.28
2022-08-02T19:56:20.228Z,99974.50
2022-08-02T19:58:49.849Z,99974.22
2022-08-02T20:01:25.273Z,99975.81
2022-08-02T20:03:57.994Z,99970.63
2022-08-02T20:06:29.395Z,99970.88
2022-08-02T20:08:58.970Z,99976.31
2022-08-02T20:11:34.834Z,99973.31
2022-08-02T20:14:04.195Z,99975.47
2022-08-02T20:16:33.036Z,99974.66
2022-08-02T20:19:02.948Z,99974.06
2022-08-02T20:21:36.546Z,99972.69
2022-08-02T20:24:07.260Z,99974.84
2022-08-02T20:26:35.767Z,99971.56
2022-08-02T20:29:06.357Z,99970.75
2022-08-02T20:31:36.243Z,99969.91
2022-08-02T20:34:09.993Z,99968.28
2022-08-02T20:36:38.608Z,99965.00
2022-08-02T20:39:06.601Z,99966.81
2022-08-02T20:41:36.792Z,99970.06
2022-08-02T20:44:15.986Z,99964.56
2022-08-02T20:46:59.164Z,99961.78
2022-08-02T20:49:40.685Z,99958.22
2022-08-02T20:52:24.038Z,99967.13
2022-08-02T20:54:56.536Z,99961.38
2022-08-02T20:57:48.890Z,99967.34
2022-08-02T21:00:20.778Z,99967.53
2022-08-02T21:02:50.476Z,99967.78
2022-08-02T21:05:26.797Z,99963.72
2022-08-02T21:08:14.840Z,99965.56
2022-08-02T21:10:52.171Z,99962.78
2022-08-02T21:13:26.162Z,99962.72
2022-08-02T21:15:57.760Z,99958.38
2022-08-02T21:18:40.317Z,99957.34
2022-08-02T21:21:10.842Z,99961.16
2022-08-02T21:23:49.070Z,99957.84
2022-08-02T21:26:28.228Z,99960.00
2022-08-02T21:28:58.303Z,99961.66
2022-08-02T21:34:22.312Z,99969.94
2022-08-02T21:36:56.743Z,99968.59
2022-08-02T21:39:24.870Z,99975.94
2022-08-02T21:41:53.031Z,99982.47
2022-08-02T21:44:22.090Z,99979.13
2022-08-02T21:46:50.684Z,99981.78
2022-08-02T21:49:20.120Z,99978.25
2022-08-02T21:51:49.495Z,99976.66
2022-08-02T21:54:21.207Z,99971.72
2022-08-02T21:56:50.147Z,99979.81
2022-08-02T21:59:25.427Z,99972.44
2022-08-02T22:01:54.529Z,99982.47
2022-08-02T22:04:25.131Z,99986.56
2022-08-02T22:06:53.824Z,99976.56
2022-08-02T22:09:44.622Z,99981.13
2022-08-02T22:12:17.643Z,99978.84
2022-08-02T22:15:05.292Z,99981.03
2022-08-02T22:17:51.778Z,99985.63
2022-08-02T22:20:21.451Z,99973.69
2022-08-02T22:22:52.438Z,99981.50
2022-08-02T22:25:36.872Z,99977.41
2022-08-02T22:28:39.087Z,99982.28
2022-08-02T22:30:56.959Z,99979.56
2022-08-02T22:33:46.944Z,99976.78
2022-08-02T22:36:29.172Z,99973.47
2022-08-02T22:38:58.262Z,99975.97
2022-08-02T22:42:05.590Z,99974.56
2022-08-02T22:44:18.742Z,99975.88
2022-08-02T22:46:47.063Z,99974.00
2022-08-02T22:49:37.956Z,99974.56
2022-08-02T22:52:10.716Z,99978.91
2022-08-02T22:54:40.246Z,99981.06
2022-08-02T22:57:11.704Z,99979.91
2022-08-02T22:59:10.805Z,99960.50
2022-08-02T22:59:41.627Z,99973.91
2022-08-02T23:02:11.556Z,99982.56
2022-08-02T23:04:40.824Z,99983.88
2022-08-02T23:07:10.197Z,99980.09
2022-08-02T23:09:38.536Z,99985.28
2022-08-02T23:12:08.079Z,99988.00
2022-08-02T23:14:38.704Z,99988.97
2022-08-02T23:17:26.532Z,99993.06
2022-08-02T23:19:55.608Z,99990.09
2022-08-02T23:22:29.854Z,99990.09
2022-08-02T23:25:02.158Z,99988.47
2022-08-02T23:27:31.871Z,99990.91
2022-08-02T23:30:02.683Z,99999.50
2022-08-02T23:32:32.490Z,99995.63
2022-08-02T23:35:01.816Z,100001.97
2022-08-02T23:37:57.975Z,99999.75
2022-08-02T23:40:38.886Z,99999.31
2022-08-02T23:43:14.050Z,99994.88
2022-08-02T23:45:46.630Z,100000.66
2022-08-02T23:48:15.796Z,100003.94
2022-08-02T23:50:46.226Z,100007.22
2022-08-02T23:53:15.765Z,100005.88
2022-08-02T23:55:44.964Z,99999.41
2022-08-02T23:58:14.504Z,99998.84
